sensor_id;sensor_type;location;lat;lon;timestamp;temperature;humidity
70068;DHT22;57425;51.616;6.680;2024-01-11T00:01:26;-0.90;87.80
70068;DHT22;57425;51.616;6.680;2024-01-11T00:03:52;-0.90;87.60
70068;DHT22;57425;51.616;6.680;2024-01-11T00:06:17;-0.80;87.50
70068;DHT22;57425;51.616;6.680;2024-01-11T00:08:43;-0.90;87.40
70068;DHT22;57425;51.616;6.680;2024-01-11T00:11:09;-1.00;87.10
70068;DHT22;57425;51.616;6.680;2024-01-11T00:13:34;-0.70;87.10
70068;DHT22;57425;51.616;6.680;2024-01-11T00:16:00;-0.80;87.20
70068;DHT22;57425;51.616;6.680;2024-01-11T00:18:25;-0.80;86.90
70068;DHT22;57425;51.616;6.680;2024-01-11T00:20:51;-0.80;86.70
70068;DHT22;57425;51.616;6.680;2024-01-11T00:23:17;-0.80;86.60
70068;DHT22;57425;51.616;6.680;2024-01-11T00:25:43;-0.90;86.40
70068;DHT22;57425;51.616;6.680;2024-01-11T00:28:08;-1.00;86.30
70068;DHT22;57425;51.616;6.680;2024-01-11T00:30:34;-1.00;86.30
70068;DHT22;57425;51.616;6.680;2024-01-11T00:32:59;-0.80;86.40
70068;DHT22;57425;51.616;6.680;2024-01-11T00:35:25;-1.00;85.40
70068;DHT22;57425;51.616;6.680;2024-01-11T00:37:51;-1.00;84.90
70068;DHT22;57425;51.616;6.680;2024-01-11T00:40:16;-0.90;84.40
70068;DHT22;57425;51.616;6.680;2024-01-11T00:42:42;-1.00;84.30
70068;DHT22;57425;51.616;6.680;2024-01-11T00:45:08;-0.90;84.90
70068;DHT22;57425;51.616;6.680;2024-01-11T00:47:33;-1.10;84.30
70068;DHT22;57425;51.616;6.680;2024-01-11T00:49:59;-1.10;84.30
70068;DHT22;57425;51.616;6.680;2024-01-11T00:52:25;-1.00;84.50
70068;DHT22;57425;51.616;6.680;2024-01-11T00:54:50;-1.00;84.60
70068;DHT22;57425;51.616;6.680;2024-01-11T00:57:16;-1.00;85.00
70068;DHT22;57425;51.616;6.680;2024-01-11T00:59:41;-1.10;85.20
70068;DHT22;57425;51.616;6.680;2024-01-11T01:02:07;-1.10;85.70
70068;DHT22;57425;51.616;6.680;2024-01-11T01:04:33;-1.00;85.40
70068;DHT22;57425;51.616;6.680;2024-01-11T01:06:58;-1.00;85.30
70068;DHT22;57425;51.616;6.680;2024-01-11T01:09:24;-1.10;85.20
70068;DHT22;57425;51.616;6.680;2024-01-11T01:11:50;-1.10;85.10
70068;DHT22;57425;51.616;6.680;2024-01-11T01:14:15;-1.00;85.00
70068;DHT22;57425;51.616;6.680;2024-01-11T01:16:41;-1.00;84.70
70068;DHT22;57425;51.616;6.680;2024-01-11T01:19:07;-1.10;84.40
70068;DHT22;57425;51.616;6.680;2024-01-11T01:21:33;-1.20;84.20
70068;DHT22;57425;51.616;6.680;2024-01-11T01:23:58;-1.00;83.90
70068;DHT22;57425;51.616;6.680;2024-01-11T01:26:24;-1.00;83.20
70068;DHT22;57425;51.616;6.680;2024-01-11T01:28:49;-1.00;83.30
70068;DHT22;57425;51.616;6.680;2024-01-11T01:31:15;-1.20;83.50
70068;DHT22;57425;51.616;6.680;2024-01-11T01:33:41;-1.20;82.60
70068;DHT22;57425;51.616;6.680;2024-01-11T01:36:12;-1.10;82.40
70068;DHT22;57425;51.616;6.680;2024-01-11T01:38:38;-1.20;82.10
70068;DHT22;57425;51.616;6.680;2024-01-11T01:41:04;-1.10;82.00
70068;DHT22;57425;51.616;6.680;2024-01-11T01:43:30;-1.20;81.70
70068;DHT22;57425;51.616;6.680;2024-01-11T01:45:55;-1.10;81.50
70068;DHT22;57425;51.616;6.680;2024-01-11T01:48:21;-1.10;81.50
70068;DHT22;57425;51.616;6.680;2024-01-11T01:50:47;-1.10;81.40
70068;DHT22;57425;51.616;6.680;2024-01-11T01:53:23;-1.10;81.20
70068;DHT22;57425;51.616;6.680;2024-01-11T01:55:51;-1.30;80.40
70068;DHT22;57425;51.616;6.680;2024-01-11T01:58:17;-1.30;79.20
70068;DHT22;57425;51.616;6.680;2024-01-11T02:00:44;-1.20;78.60
70068;DHT22;57425;51.616;6.680;2024-01-11T02:03:11;-1.50;78.30
70068;DHT22;57425;51.616;6.680;2024-01-11T02:05:37;-1.50;78.00
70068;DHT22;57425;51.616;6.680;2024-01-11T02:08:06;-1.30;78.00
70068;DHT22;57425;51.616;6.680;2024-01-11T02:10:35;-1.20;78.00
70068;DHT22;57425;51.616;6.680;2024-01-11T02:13:01;-1.30;77.90
70068;DHT22;57425;51.616;6.680;2024-01-11T02:15:26;-1.30;77.70
70068;DHT22;57425;51.616;6.680;2024-01-11T02:17:52;-1.50;77.50
70068;DHT22;57425;51.616;6.680;2024-01-11T02:20:18;-1.30;77.50
70068;DHT22;57425;51.616;6.680;2024-01-11T02:22:50;-1.50;77.40
70068;DHT22;57425;51.616;6.680;2024-01-11T02:25:18;-1.30;77.80
70068;DHT22;57425;51.616;6.680;2024-01-11T02:27:48;-1.30;78.30
70068;DHT22;57425;51.616;6.680;2024-01-11T02:30:14;-1.30;78.60
70068;DHT22;57425;51.616;6.680;2024-01-11T02:32:42;-1.50;79.30
70068;DHT22;57425;51.616;6.680;2024-01-11T02:35:10;-1.40;81.40
70068;DHT22;57425;51.616;6.680;2024-01-11T02:37:37;-1.30;83.70
70068;DHT22;57425;51.616;6.680;2024-01-11T02:40:03;-1.40;83.30
70068;DHT22;57425;51.616;6.680;2024-01-11T02:42:29;-1.40;83.70
70068;DHT22;57425;51.616;6.680;2024-01-11T02:44:55;-1.40;83.70
70068;DHT22;57425;51.616;6.680;2024-01-11T02:47:21;-1.40;82.20
70068;DHT22;57425;51.616;6.680;2024-01-11T02:49:46;-1.50;82.60
70068;DHT22;57425;51.616;6.680;2024-01-11T02:52:12;-1.30;83.30
70068;DHT22;57425;51.616;6.680;2024-01-11T02:54:37;-1.30;82.40
70068;DHT22;57425;51.616;6.680;2024-01-11T02:57:04;-1.40;81.20
70068;DHT22;57425;51.616;6.680;2024-01-11T02:59:29;-1.40;80.70
70068;DHT22;57425;51.616;6.680;2024-01-11T03:01:55;-1.50;80.60
70068;DHT22;57425;51.616;6.680;2024-01-11T03:04:21;-1.50;81.10
70068;DHT22;57425;51.616;6.680;2024-01-11T03:06:46;-1.50;82.40
70068;DHT22;57425;51.616;6.680;2024-01-11T03:09:12;-1.40;81.80
70068;DHT22;57425;51.616;6.680;2024-01-11T03:11:38;-1.60;81.10
70068;DHT22;57425;51.616;6.680;2024-01-11T03:14:03;-1.40;80.90
70068;DHT22;57425;51.616;6.680;2024-01-11T03:16:29;-1.40;81.30
70068;DHT22;57425;51.616;6.680;2024-01-11T03:18:55;-1.60;80.00
70068;DHT22;57425;51.616;6.680;2024-01-11T03:21:21;-1.60;80.40
70068;DHT22;57425;51.616;6.680;2024-01-11T03:23:46;-1.60;79.70
70068;DHT22;57425;51.616;6.680;2024-01-11T03:26:18;-1.70;79.00
70068;DHT22;57425;51.616;6.680;2024-01-11T03:28:43;-1.50;78.00
70068;DHT22;57425;51.616;6.680;2024-01-11T03:31:12;-1.60;77.10
70068;DHT22;57425;51.616;6.680;2024-01-11T03:33:38;-1.80;76.60
70068;DHT22;57425;51.616;6.680;2024-01-11T03:36:07;-1.70;76.50
70068;DHT22;57425;51.616;6.680;2024-01-11T03:38:34;-1.70;76.30
70068;DHT22;57425;51.616;6.680;2024-01-11T03:40:59;-1.70;76.50
70068;DHT22;57425;51.616;6.680;2024-01-11T03:43:25;-1.60;77.20
70068;DHT22;57425;51.616;6.680;2024-01-11T03:45:51;-1.70;77.10
70068;DHT22;57425;51.616;6.680;2024-01-11T03:48:16;-1.80;76.80
70068;DHT22;57425;51.616;6.680;2024-01-11T03:50:42;-1.70;76.90
70068;DHT22;57425;51.616;6.680;2024-01-11T03:53:07;-1.70;77.40
70068;DHT22;57425;51.616;6.680;2024-01-11T03:55:33;-1.70;77.20
70068;DHT22;57425;51.616;6.680;2024-01-11T03:57:59;-1.70;77.40
70068;DHT22;57425;51.616;6.680;2024-01-11T04:00:25;-1.80;77.30
70068;DHT22;57425;51.616;6.680;2024-01-11T04:02:50;-1.70;77.20
70068;DHT22;57425;51.616;6.680;2024-01-11T04:05:16;-1.90;77.00
70068;DHT22;57425;51.616;6.680;2024-01-11T04:07:42;-1.70;77.00
70068;DHT22;57425;51.616;6.680;2024-01-11T04:10:08;-1.80;83.40
70068;DHT22;57425;51.616;6.680;2024-01-11T04:12:36;-1.60;82.80
70068;DHT22;57425;51.616;6.680;2024-01-11T04:15:03;-1.90;83.40
70068;DHT22;57425;51.616;6.680;2024-01-11T04:17:28;-1.80;83.60
70068;DHT22;57425;51.616;6.680;2024-01-11T04:19:54;-1.80;83.50
70068;DHT22;57425;51.616;6.680;2024-01-11T04:22:20;-1.60;83.60
70068;DHT22;57425;51.616;6.680;2024-01-11T04:24:45;-1.60;83.50
70068;DHT22;57425;51.616;6.680;2024-01-11T04:27:11;-1.90;83.40
70068;DHT22;57425;51.616;6.680;2024-01-11T04:29:37;-1.60;83.80
70068;DHT22;57425;51.616;6.680;2024-01-11T04:32:03;-1.80;83.90
70068;DHT22;57425;51.616;6.680;2024-01-11T04:34:28;-1.90;84.00
70068;DHT22;57425;51.616;6.680;2024-01-11T04:36:54;-1.70;84.00
70068;DHT22;57425;51.616;6.680;2024-01-11T04:39:20;-1.70;84.20
70068;DHT22;57425;51.616;6.680;2024-01-11T04:41:45;-1.70;84.30
70068;DHT22;57425;51.616;6.680;2024-01-11T04:44:11;-1.80;83.60
70068;DHT22;57425;51.616;6.680;2024-01-11T04:46:37;-1.70;82.70
70068;DHT22;57425;51.616;6.680;2024-01-11T04:49:02;-1.90;81.20
70068;DHT22;57425;51.616;6.680;2024-01-11T04:51:28;-1.70;80.70
70068;DHT22;57425;51.616;6.680;2024-01-11T04:53:55;-1.90;80.50
70068;DHT22;57425;51.616;6.680;2024-01-11T04:56:20;-1.90;81.00
70068;DHT22;57425;51.616;6.680;2024-01-11T04:58:47;-1.80;80.30
70068;DHT22;57425;51.616;6.680;2024-01-11T05:01:17;-1.80;79.30
70068;DHT22;57425;51.616;6.680;2024-01-11T05:03:44;-1.90;79.80
70068;DHT22;57425;51.616;6.680;2024-01-11T05:06:18;-1.90;81.60
70068;DHT22;57425;51.616;6.680;2024-01-11T05:08:45;-1.80;83.40
70068;DHT22;57425;51.616;6.680;2024-01-11T05:11:23;-1.90;83.40
70068;DHT22;57425;51.616;6.680;2024-01-11T05:13:52;-1.90;91.40
70068;DHT22;57425;51.616;6.680;2024-01-11T05:16:22;-1.80;90.40
70068;DHT22;57425;51.616;6.680;2024-01-11T05:18:49;-1.80;91.70
70068;DHT22;57425;51.616;6.680;2024-01-11T05:21:15;-1.80;90.90
70068;DHT22;57425;51.616;6.680;2024-01-11T05:23:41;-2.10;89.80
70068;DHT22;57425;51.616;6.680;2024-01-11T05:26:08;-2.00;88.40
70068;DHT22;57425;51.616;6.680;2024-01-11T05:28:33;-2.00;86.20
70068;DHT22;57425;51.616;6.680;2024-01-11T05:30:59;-1.90;82.80
70068;DHT22;57425;51.616;6.680;2024-01-11T05:33:25;-1.90;82.30
70068;DHT22;57425;51.616;6.680;2024-01-11T05:35:50;-1.90;81.50
70068;DHT22;57425;51.616;6.680;2024-01-11T05:38:16;-2.20;81.40
70068;DHT22;57425;51.616;6.680;2024-01-11T05:40:41;-1.90;82.30
70068;DHT22;57425;51.616;6.680;2024-01-11T05:43:07;-2.10;82.40
70068;DHT22;57425;51.616;6.680;2024-01-11T05:45:33;-2.10;82.40
70068;DHT22;57425;51.616;6.680;2024-01-11T05:47:59;-2.10;82.10
70068;DHT22;57425;51.616;6.680;2024-01-11T05:50:25;-1.90;81.90
70068;DHT22;57425;51.616;6.680;2024-01-11T05:52:52;-2.10;82.10
70068;DHT22;57425;51.616;6.680;2024-01-11T05:55:19;-2.20;81.50
70068;DHT22;57425;51.616;6.680;2024-01-11T05:57:45;-2.00;81.30
70068;DHT22;57425;51.616;6.680;2024-01-11T06:00:11;-1.90;81.00
70068;DHT22;57425;51.616;6.680;2024-01-11T06:02:39;-2.20;80.80
70068;DHT22;57425;51.616;6.680;2024-01-11T06:05:08;-2.00;82.30
70068;DHT22;57425;51.616;6.680;2024-01-11T06:07:34;-2.20;81.80
70068;DHT22;57425;51.616;6.680;2024-01-11T06:09:59;-2.20;81.50
70068;DHT22;57425;51.616;6.680;2024-01-11T06:12:26;-2.00;81.90
70068;DHT22;57425;51.616;6.680;2024-01-11T06:14:53;-2.20;81.90
70068;DHT22;57425;51.616;6.680;2024-01-11T06:17:18;-2.20;82.10
70068;DHT22;57425;51.616;6.680;2024-01-11T06:19:44;-2.00;83.60
70068;DHT22;57425;51.616;6.680;2024-01-11T06:22:10;-2.00;84.90
70068;DHT22;57425;51.616;6.680;2024-01-11T06:24:35;-2.10;87.70
70068;DHT22;57425;51.616;6.680;2024-01-11T06:27:01;-2.00;81.50
70068;DHT22;57425;51.616;6.680;2024-01-11T06:29:27;-2.20;83.20
70068;DHT22;57425;51.616;6.680;2024-01-11T06:31:52;-2.10;85.10
70068;DHT22;57425;51.616;6.680;2024-01-11T06:34:19;-2.10;83.60
70068;DHT22;57425;51.616;6.680;2024-01-11T06:36:45;-2.20;83.60
70068;DHT22;57425;51.616;6.680;2024-01-11T06:58:45;-2.10;95.10
70068;DHT22;57425;51.616;6.680;2024-01-11T07:01:11;-2.30;94.00
70068;DHT22;57425;51.616;6.680;2024-01-11T07:03:40;-2.50;92.20
70068;DHT22;57425;51.616;6.680;2024-01-11T07:06:06;-2.20;91.00
70068;DHT22;57425;51.616;6.680;2024-01-11T07:08:32;-2.20;91.10
70068;DHT22;57425;51.616;6.680;2024-01-11T07:11:00;-2.30;91.50
70068;DHT22;57425;51.616;6.680;2024-01-11T07:13:26;-2.40;91.30
70068;DHT22;57425;51.616;6.680;2024-01-11T07:15:51;-2.40;91.80
70068;DHT22;57425;51.616;6.680;2024-01-11T07:18:18;-2.30;94.90
70068;DHT22;57425;51.616;6.680;2024-01-11T07:20:44;-2.40;94.40
70068;DHT22;57425;51.616;6.680;2024-01-11T07:23:09;-2.40;94.80
70068;DHT22;57425;51.616;6.680;2024-01-11T07:25:35;-2.30;94.90
70068;DHT22;57425;51.616;6.680;2024-01-11T07:28:01;-2.30;94.90
70068;DHT22;57425;51.616;6.680;2024-01-11T07:30:27;-2.50;94.80
70068;DHT22;57425;51.616;6.680;2024-01-11T07:32:52;-2.30;94.90
70068;DHT22;57425;51.616;6.680;2024-01-11T07:57:19;-1.90;88.20
70068;DHT22;57425;51.616;6.680;2024-01-11T07:59:45;-2.50;88.30
70068;DHT22;57425;51.616;6.680;2024-01-11T08:02:10;-2.40;89.50
70068;DHT22;57425;51.616;6.680;2024-01-11T08:04:36;-2.60;90.00
70068;DHT22;57425;51.616;6.680;2024-01-11T08:07:04;-2.50;90.10
70068;DHT22;57425;51.616;6.680;2024-01-11T08:09:29;-2.60;90.00
70068;DHT22;57425;51.616;6.680;2024-01-11T08:11:55;-2.40;89.80
70068;DHT22;57425;51.616;6.680;2024-01-11T08:14:21;-2.60;89.00
70068;DHT22;57425;51.616;6.680;2024-01-11T08:16:47;-2.40;87.50
70068;DHT22;57425;51.616;6.680;2024-01-11T08:19:12;-2.50;83.00
70068;DHT22;57425;51.616;6.680;2024-01-11T08:21:42;-2.60;82.50
70068;DHT22;57425;51.616;6.680;2024-01-11T08:24:08;-2.70;81.00
70068;DHT22;57425;51.616;6.680;2024-01-11T08:26:34;-2.60;85.50
70068;DHT22;57425;51.616;6.680;2024-01-11T08:28:59;-2.50;87.90
70068;DHT22;57425;51.616;6.680;2024-01-11T08:31:25;-2.50;85.30
70068;DHT22;57425;51.616;6.680;2024-01-11T08:33:51;-2.50;83.90
70068;DHT22;57425;51.616;6.680;2024-01-11T08:36:17;-2.70;74.40
70068;DHT22;57425;51.616;6.680;2024-01-11T08:38:42;-2.70;72.30
70068;DHT22;57425;51.616;6.680;2024-01-11T08:41:08;-2.70;72.30
70068;DHT22;57425;51.616;6.680;2024-01-11T08:43:34;-2.70;72.30
70068;DHT22;57425;51.616;6.680;2024-01-11T08:46:00;-2.80;72.20
70068;DHT22;57425;51.616;6.680;2024-01-11T08:48:27;-2.80;72.20
70068;DHT22;57425;51.616;6.680;2024-01-11T08:50:53;-2.80;72.10
70068;DHT22;57425;51.616;6.680;2024-01-11T08:53:19;-2.80;72.20
70068;DHT22;57425;51.616;6.680;2024-01-11T08:55:45;-2.80;72.20
70068;DHT22;57425;51.616;6.680;2024-01-11T08:58:10;-2.80;72.20
70068;DHT22;57425;51.616;6.680;2024-01-11T09:00:37;-2.80;72.10
70068;DHT22;57425;51.616;6.680;2024-01-11T09:03:03;-2.80;72.10
70068;DHT22;57425;51.616;6.680;2024-01-11T09:05:29;-2.80;72.10
70068;DHT22;57425;51.616;6.680;2024-01-11T09:07:55;-2.80;72.10
70068;DHT22;57425;51.616;6.680;2024-01-11T09:10:20;-2.80;72.10
70068;DHT22;57425;51.616;6.680;2024-01-11T09:12:46;-2.80;72.00
70068;DHT22;57425;51.616;6.680;2024-01-11T09:15:12;-2.80;72.10
70068;DHT22;57425;51.616;6.680;2024-01-11T09:17:37;-2.80;72.10
70068;DHT22;57425;51.616;6.680;2024-01-11T09:20:05;-2.80;72.10
70068;DHT22;57425;51.616;6.680;2024-01-11T09:22:31;-2.80;72.10
70068;DHT22;57425;51.616;6.680;2024-01-11T09:24:56;-2.80;72.00
70068;DHT22;57425;51.616;6.680;2024-01-11T09:27:22;-2.80;72.00
70068;DHT22;57425;51.616;6.680;2024-01-11T09:29:48;-2.80;72.10
70068;DHT22;57425;51.616;6.680;2024-01-11T09:32:13;-2.80;72.60
70068;DHT22;57425;51.616;6.680;2024-01-11T09:34:39;-2.80;72.00
70068;DHT22;57425;51.616;6.680;2024-01-11T09:37:05;-2.80;72.00
70068;DHT22;57425;51.616;6.680;2024-01-11T09:39:31;-2.80;72.00
70068;DHT22;57425;51.616;6.680;2024-01-11T09:42:07;-2.70;72.10
70068;DHT22;57425;51.616;6.680;2024-01-11T09:44:36;-2.80;72.10
70068;DHT22;57425;51.616;6.680;2024-01-11T09:47:04;-2.80;72.10
70068;DHT22;57425;51.616;6.680;2024-01-11T09:49:33;-2.80;72.10
70068;DHT22;57425;51.616;6.680;2024-01-11T09:52:00;-2.70;72.20
70068;DHT22;57425;51.616;6.680;2024-01-11T09:54:27;-2.80;72.10
70068;DHT22;57425;51.616;6.680;2024-01-11T09:56:54;-2.70;72.10
70068;DHT22;57425;51.616;6.680;2024-01-11T09:59:24;-2.70;72.10
70068;DHT22;57425;51.616;6.680;2024-01-11T10:01:50;-2.70;72.10
70068;DHT22;57425;51.616;6.680;2024-01-11T10:04:16;-2.70;72.20
70068;DHT22;57425;51.616;6.680;2024-01-11T10:06:42;-2.70;72.20
70068;DHT22;57425;51.616;6.680;2024-01-11T10:09:09;-2.60;72.30
70068;DHT22;57425;51.616;6.680;2024-01-11T10:11:34;-2.70;72.20
70068;DHT22;57425;51.616;6.680;2024-01-11T10:14:01;-2.60;72.20
70068;DHT22;57425;51.616;6.680;2024-01-11T10:16:28;-2.60;72.20
70068;DHT22;57425;51.616;6.680;2024-01-11T10:18:54;-2.60;72.20
70068;DHT22;57425;51.616;6.680;2024-01-11T10:21:21;-2.60;72.20
70068;DHT22;57425;51.616;6.680;2024-01-11T10:23:49;-2.60;72.20
70068;DHT22;57425;51.616;6.680;2024-01-11T10:26:18;-2.60;72.20
70068;DHT22;57425;51.616;6.680;2024-01-11T10:28:47;-2.60;72.30
70068;DHT22;57425;51.616;6.680;2024-01-11T10:31:13;-2.60;72.30
70068;DHT22;57425;51.616;6.680;2024-01-11T10:33:41;-2.50;72.30
70068;DHT22;57425;51.616;6.680;2024-01-11T10:36:07;-2.50;72.40
70068;DHT22;57425;51.616;6.680;2024-01-11T10:38:37;-2.50;72.40
70068;DHT22;57425;51.616;6.680;2024-01-11T10:41:07;-2.50;72.40
70068;DHT22;57425;51.616;6.680;2024-01-11T10:43:36;-2.50;72.90
70068;DHT22;57425;51.616;6.680;2024-01-11T10:46:04;-2.50;72.40
70068;DHT22;57425;51.616;6.680;2024-01-11T10:48:32;-2.50;72.40
70068;DHT22;57425;51.616;6.680;2024-01-11T10:51:01;-2.50;72.40
70068;DHT22;57425;51.616;6.680;2024-01-11T10:53:47;-2.50;72.50
70068;DHT22;57425;51.616;6.680;2024-01-11T10:56:17;-2.50;72.40
70068;DHT22;57425;51.616;6.680;2024-01-11T10:58:44;-2.50;72.50
70068;DHT22;57425;51.616;6.680;2024-01-11T11:01:13;-2.50;72.50
70068;DHT22;57425;51.616;6.680;2024-01-11T11:03:39;-2.40;73.20
70068;DHT22;57425;51.616;6.680;2024-01-11T11:06:09;-2.40;72.70
70068;DHT22;57425;51.616;6.680;2024-01-11T11:08:40;-2.40;72.70
70068;DHT22;57425;51.616;6.680;2024-01-11T11:11:05;-2.40;72.70
70068;DHT22;57425;51.616;6.680;2024-01-11T11:13:32;-2.40;73.30
70068;DHT22;57425;51.616;6.680;2024-01-11T11:15:57;-2.40;72.80
70068;DHT22;57425;51.616;6.680;2024-01-11T11:18:24;-2.40;72.80
70068;DHT22;57425;51.616;6.680;2024-01-11T11:20:50;-2.30;72.90
70068;DHT22;57425;51.616;6.680;2024-01-11T11:23:18;-2.30;72.90
70068;DHT22;57425;51.616;6.680;2024-01-11T11:25:48;-2.30;72.90
70068;DHT22;57425;51.616;6.680;2024-01-11T11:28:17;-2.30;72.90
70068;DHT22;57425;51.616;6.680;2024-01-11T11:30:44;-2.30;72.90
70068;DHT22;57425;51.616;6.680;2024-01-11T11:33:16;-2.30;73.50
70068;DHT22;57425;51.616;6.680;2024-01-11T11:35:42;-2.20;73.00
70068;DHT22;57425;51.616;6.680;2024-01-11T11:38:08;-2.20;73.00
70068;DHT22;57425;51.616;6.680;2024-01-11T11:40:37;-2.20;73.10
70068;DHT22;57425;51.616;6.680;2024-01-11T11:43:08;-2.20;73.10
70068;DHT22;57425;51.616;6.680;2024-01-11T11:45:35;-2.20;73.20
70068;DHT22;57425;51.616;6.680;2024-01-11T11:48:01;-2.20;73.20
70068;DHT22;57425;51.616;6.680;2024-01-11T11:50:29;-2.10;73.20
70068;DHT22;57425;51.616;6.680;2024-01-11T11:52:56;-2.10;73.30
70068;DHT22;57425;51.616;6.680;2024-01-11T11:55:23;-2.10;73.30
70068;DHT22;57425;51.616;6.680;2024-01-11T11:57:50;-2.10;73.30
70068;DHT22;57425;51.616;6.680;2024-01-11T12:00:17;-2.10;73.30
70068;DHT22;57425;51.616;6.680;2024-01-11T12:02:43;-2.10;73.40
70068;DHT22;57425;51.616;6.680;2024-01-11T12:05:08;-2.10;73.40
70068;DHT22;57425;51.616;6.680;2024-01-11T12:07:34;-2.10;73.50
70068;DHT22;57425;51.616;6.680;2024-01-11T12:10:00;-2.00;73.60
70068;DHT22;57425;51.616;6.680;2024-01-11T12:12:26;-2.00;73.60
70068;DHT22;57425;51.616;6.680;2024-01-11T12:14:53;-2.00;73.60
70068;DHT22;57425;51.616;6.680;2024-01-11T12:17:19;-2.00;73.70
70068;DHT22;57425;51.616;6.680;2024-01-11T12:19:44;-2.00;73.70
70068;DHT22;57425;51.616;6.680;2024-01-11T12:22:10;-2.00;73.70
70068;DHT22;57425;51.616;6.680;2024-01-11T12:24:36;-2.00;73.70
70068;DHT22;57425;51.616;6.680;2024-01-11T12:27:02;-1.90;73.90
70068;DHT22;57425;51.616;6.680;2024-01-11T12:29:29;-1.90;74.00
70068;DHT22;57425;51.616;6.680;2024-01-11T12:31:59;-1.90;74.20
70068;DHT22;57425;51.616;6.680;2024-01-11T12:34:26;-1.80;74.50
70068;DHT22;57425;51.616;6.680;2024-01-11T12:36:52;-1.90;74.30
70068;DHT22;57425;51.616;6.680;2024-01-11T12:39:20;-1.90;74.10
70068;DHT22;57425;51.616;6.680;2024-01-11T12:41:51;-1.80;74.10
70068;DHT22;57425;51.616;6.680;2024-01-11T12:44:20;-1.80;74.10
70068;DHT22;57425;51.616;6.680;2024-01-11T12:46:48;-1.80;74.20
70068;DHT22;57425;51.616;6.680;2024-01-11T12:49:16;-1.80;74.20
70068;DHT22;57425;51.616;6.680;2024-01-11T12:51:42;-1.80;74.20
70068;DHT22;57425;51.616;6.680;2024-01-11T12:54:13;-1.70;74.40
70068;DHT22;57425;51.616;6.680;2024-01-11T12:56:43;-1.60;75.10
70068;DHT22;57425;51.616;6.680;2024-01-11T12:59:09;-1.70;76.00
70068;DHT22;57425;51.616;6.680;2024-01-11T13:01:36;-1.40;89.20
70068;DHT22;57425;51.616;6.680;2024-01-11T13:04:03;-1.40;81.70
70068;DHT22;57425;51.616;6.680;2024-01-11T13:06:30;-1.40;79.90
70068;DHT22;57425;51.616;6.680;2024-01-11T13:08:56;-1.60;76.80
70068;DHT22;57425;51.616;6.680;2024-01-11T13:11:22;-1.60;76.00
70068;DHT22;57425;51.616;6.680;2024-01-11T13:13:50;-1.50;76.50
70068;DHT22;57425;51.616;6.680;2024-01-11T13:18:46;-1.20;93.30
70068;DHT22;57425;51.616;6.680;2024-01-11T13:21:12;-1.50;74.70
70068;DHT22;57425;51.616;6.680;2024-01-11T13:23:38;-1.50;74.80
70068;DHT22;57425;51.616;6.680;2024-01-11T13:30:58;-1.30;93.90
70068;DHT22;57425;51.616;6.680;2024-01-11T13:33:23;-1.30;82.00
70068;DHT22;57425;51.616;6.680;2024-01-11T13:35:49;-1.30;82.70
70068;DHT22;57425;51.616;6.680;2024-01-11T13:38:15;-1.30;83.50
70068;DHT22;57425;51.616;6.680;2024-01-11T13:40:41;-1.20;83.40
70068;DHT22;57425;51.616;6.680;2024-01-11T13:43:10;-1.00;95.90
70068;DHT22;57425;51.616;6.680;2024-01-11T13:45:36;-1.30;85.80
70068;DHT22;57425;51.616;6.680;2024-01-11T13:50:29;-1.10;96.90
70068;DHT22;57425;51.616;6.680;2024-01-11T13:52:54;-1.20;81.30
70068;DHT22;57425;51.616;6.680;2024-01-11T13:55:20;-1.10;79.90
70068;DHT22;57425;51.616;6.680;2024-01-11T13:57:47;-1.10;86.30
70068;DHT22;57425;51.616;6.680;2024-01-11T14:00:13;-1.00;84.00
70068;DHT22;57425;51.616;6.680;2024-01-11T14:02:39;-1.30;75.50
70068;DHT22;57425;51.616;6.680;2024-01-11T14:05:09;-1.30;75.50
70068;DHT22;57425;51.616;6.680;2024-01-11T14:07:38;-1.20;75.60
70068;DHT22;57425;51.616;6.680;2024-01-11T14:10:05;-1.30;75.60
70068;DHT22;57425;51.616;6.680;2024-01-11T14:12:31;-1.20;75.70
70068;DHT22;57425;51.616;6.680;2024-01-11T14:14:57;-1.20;75.70
70068;DHT22;57425;51.616;6.680;2024-01-11T14:17:23;-1.20;75.80
70068;DHT22;57425;51.616;6.680;2024-01-11T14:19:49;-1.20;75.90
70068;DHT22;57425;51.616;6.680;2024-01-11T14:22:15;-1.20;75.90
70068;DHT22;57425;51.616;6.680;2024-01-11T14:24:40;-1.20;76.00
70068;DHT22;57425;51.616;6.680;2024-01-11T14:27:06;-1.10;76.10
70068;DHT22;57425;51.616;6.680;2024-01-11T14:29:32;-1.10;76.60
70068;DHT22;57425;51.616;6.680;2024-01-11T14:31:58;-1.10;76.10
70068;DHT22;57425;51.616;6.680;2024-01-11T14:34:24;-1.10;76.20
70068;DHT22;57425;51.616;6.680;2024-01-11T14:36:50;-1.10;76.20
70068;DHT22;57425;51.616;6.680;2024-01-11T14:41:41;-0.80;90.30
70068;DHT22;57425;51.616;6.680;2024-01-11T14:44:07;-1.00;76.30
70068;DHT22;57425;51.616;6.680;2024-01-11T14:46:33;-1.00;76.40
70068;DHT22;57425;51.616;6.680;2024-01-11T14:48:58;-1.00;76.40
70068;DHT22;57425;51.616;6.680;2024-01-11T14:51:25;-1.00;76.40
70068;DHT22;57425;51.616;6.680;2024-01-11T14:53:54;-1.00;76.50
70068;DHT22;57425;51.616;6.680;2024-01-11T14:56:19;-1.00;76.60
70068;DHT22;57425;51.616;6.680;2024-01-11T14:58:46;-0.80;82.10
70068;DHT22;57425;51.616;6.680;2024-01-11T15:01:12;-0.70;91.20
70068;DHT22;57425;51.616;6.680;2024-01-11T15:03:39;-0.90;76.70
70068;DHT22;57425;51.616;6.680;2024-01-11T15:06:05;-0.90;76.70
70068;DHT22;57425;51.616;6.680;2024-01-11T15:08:31;-0.90;76.80
70068;DHT22;57425;51.616;6.680;2024-01-11T15:10:56;-0.90;76.80
70068;DHT22;57425;51.616;6.680;2024-01-11T15:13:22;-0.90;76.80
70068;DHT22;57425;51.616;6.680;2024-01-11T15:15:48;-0.90;76.90
70068;DHT22;57425;51.616;6.680;2024-01-11T15:18:13;-0.80;76.90
70068;DHT22;57425;51.616;6.680;2024-01-11T15:20:39;-0.80;77.00
70068;DHT22;57425;51.616;6.680;2024-01-11T15:23:05;-0.80;77.00
70068;DHT22;57425;51.616;6.680;2024-01-11T15:25:31;-0.80;77.00
70068;DHT22;57425;51.616;6.680;2024-01-11T15:27:56;-0.80;77.20
70068;DHT22;57425;51.616;6.680;2024-01-11T15:30:22;-0.60;82.10
70068;DHT22;57425;51.616;6.680;2024-01-11T15:32:48;-0.80;77.10
70068;DHT22;57425;51.616;6.680;2024-01-11T15:35:14;-0.80;77.10
70068;DHT22;57425;51.616;6.680;2024-01-11T15:37:40;-0.70;77.30
70068;DHT22;57425;51.616;6.680;2024-01-11T15:40:06;-0.80;77.10
70068;DHT22;57425;51.616;6.680;2024-01-11T15:42:34;-0.70;77.20
70068;DHT22;57425;51.616;6.680;2024-01-11T15:45:01;-0.70;77.30
70068;DHT22;57425;51.616;6.680;2024-01-11T15:49:58;-0.70;76.90
70068;DHT22;57425;51.616;6.680;2024-01-11T15:52:24;-0.60;77.40
70068;DHT22;57425;51.616;6.680;2024-01-11T15:54:50;-0.60;77.50
70068;DHT22;57425;51.616;6.680;2024-01-11T15:57:16;-0.70;77.30
70068;DHT22;57425;51.616;6.680;2024-01-11T15:59:41;-0.60;77.40
70068;DHT22;57425;51.616;6.680;2024-01-11T16:02:07;-0.60;77.40
70068;DHT22;57425;51.616;6.680;2024-01-11T16:04:35;-0.60;77.40
70068;DHT22;57425;51.616;6.680;2024-01-11T16:07:01;-0.60;77.50
70068;DHT22;57425;51.616;6.680;2024-01-11T16:09:27;-0.60;77.40
70068;DHT22;57425;51.616;6.680;2024-01-11T16:11:55;-0.60;77.40
70068;DHT22;57425;51.616;6.680;2024-01-11T16:14:21;-0.50;77.60
70068;DHT22;57425;51.616;6.680;2024-01-11T16:16:47;-0.60;77.50
70068;DHT22;57425;51.616;6.680;2024-01-11T16:19:13;-0.50;77.60
70068;DHT22;57425;51.616;6.680;2024-01-11T16:21:38;-0.50;77.50